createdAt,value
2022-10-23T00:00:50.955Z,61.55
2022-10-23T00:03:23.865Z,61.42
2022-10-23T00:05:53.930Z,61.49
2022-10-23T00:08:25.925Z,61.85
2022-10-23T00:10:52.858Z,61.50
2022-10-23T00:13:22.673Z,61.92
2022-10-23T00:15:49.619Z,61.90
2022-10-23T00:18:19.246Z,61.73
2022-10-23T00:20:57.292Z,61.24
2022-10-23T00:23:46.987Z,61.76
2022-10-23T00:26:21.697Z,61.88
2022-10-23T00:28:59.897Z,61.57
2022-10-23T00:31:31.450Z,61.45
2022-10-23T00:34:00.255Z,61.80
2022-10-23T00:36:27.418Z,61.42
2022-10-23T00:38:54.498Z,61.57
2022-10-23T00:41:37.514Z,61.67
2022-10-23T00:44:20.642Z,61.57
2022-10-23T00:46:52.376Z,61.75
2022-10-23T00:49:29.172Z,61.58
2022-10-23T00:52:23.263Z,61.92
2022-10-23T00:54:51.163Z,61.67
2022-10-23T00:57:18.144Z,61.94
2022-10-23T00:59:48.266Z,61.46
2022-10-23T01:02:24.699Z,61.79
2022-10-23T01:04:54.462Z,61.60
2022-10-23T01:07:45.589Z,61.58
2022-10-23T01:10:39.209Z,61.92
2022-10-23T01:13:49.975Z,61.92
2022-10-23T01:16:41.298Z,61.61
2022-10-23T01:19:29.301Z,61.95
2022-10-23T01:22:19.418Z,61.96
2022-10-23T01:25:12.403Z,61.34
2022-10-23T01:28:01.232Z,61.84
2022-10-23T01:30:32.272Z,61.65
2022-10-23T01:33:33.421Z,61.44
2022-10-23T01:36:14.253Z,61.63
2022-10-23T01:39:23.838Z,61.56
2022-10-23T01:42:31.376Z,61.66
2022-10-23T01:45:48.291Z,61.73
2022-10-23T01:48:48.870Z,61.52
2022-10-23T01:54:29.099Z,61.57
2022-10-23T01:57:25.726Z,61.53
2022-10-23T02:00:16.380Z,61.92
2022-10-23T02:03:08.062Z,61.89
2022-10-23T02:05:43.797Z,61.69
2022-10-23T02:08:11.160Z,61.65
2022-10-23T02:10:47.232Z,61.71
2022-10-23T02:13:27.157Z,61.60
2022-10-23T02:16:31.768Z,61.79
2022-10-23T02:19:06.856Z,61.54
2022-10-23T02:22:09.309Z,61.80
2022-10-23T02:25:02.298Z,61.92
2022-10-23T02:28:08.427Z,61.69
2022-10-23T02:30:44.227Z,61.88
2022-10-23T02:33:12.854Z,61.74
2022-10-23T02:35:48.884Z,61.72
2022-10-23T02:38:41.627Z,61.64
2022-10-23T02:41:47.692Z,62.07
2022-10-23T02:44:47.270Z,62.01
2022-10-23T02:48:05.985Z,61.70
2022-10-23T02:51:20.081Z,61.88
2022-10-23T02:54:24.899Z,61.83
2022-10-23T02:57:20.218Z,61.73
2022-10-23T03:00:08.783Z,61.90
2022-10-23T03:02:44.467Z,62.07
2022-10-23T03:05:31.859Z,61.81
2022-10-23T03:08:00.782Z,61.86
2022-10-23T03:10:28.600Z,61.82
2022-10-23T03:12:59.919Z,61.72
2022-10-23T03:15:31.093Z,62.01
2022-10-23T03:18:02.208Z,61.83
2022-10-23T03:20:29.298Z,61.66
2022-10-23T03:23:01.768Z,62.04
2022-10-23T03:25:35.032Z,62.06
2022-10-23T03:28:01.982Z,61.91
2022-10-23T03:30:28.856Z,61.79
2022-10-23T03:32:59.001Z,62.12
2022-10-23T03:35:30.437Z,61.82
2022-10-23T03:38:00.320Z,61.90
2022-10-23T03:40:28.815Z,61.93
2022-10-23T03:42:55.770Z,61.73
2022-10-23T03:45:26.564Z,62.07
2022-10-23T03:47:58.557Z,62.07
2022-10-23T03:50:26.206Z,62.02
2022-10-23T03:52:54.623Z,62.00
2022-10-23T03:55:22.126Z,62.00
2022-10-23T03:57:48.956Z,62.00
2022-10-23T04:00:22.227Z,61.80
2022-10-23T04:02:55.123Z,61.91
2022-10-23T04:05:27.220Z,61.69
2022-10-23T04:07:54.639Z,61.85
2022-10-23T04:10:21.896Z,61.92
2022-10-23T04:12:51.212Z,61.81
2022-10-23T04:15:27.708Z,62.26
2022-10-23T04:17:57.914Z,62.14
2022-10-23T04:20:25.459Z,61.81
2022-10-23T04:22:52.415Z,61.85
2022-10-23T04:25:22.450Z,62.09
2022-10-23T04:27:57.395Z,61.96
2022-10-23T04:30:24.774Z,61.81
2022-10-23T04:32:52.315Z,62.08
2022-10-23T04:35:20.309Z,61.83
2022-10-23T04:37:47.291Z,61.71
2022-10-23T04:40:14.414Z,61.99
2022-10-23T04:42:41.652Z,62.18
2022-10-23T04:45:09.451Z,61.91
2022-10-23T04:47:36.400Z,62.36
2022-10-23T04:50:03.911Z,62.21
2022-10-23T04:52:30.847Z,61.95
2022-10-23T04:54:57.725Z,62.00
2022-10-23T04:57:24.745Z,62.08
2022-10-23T04:59:51.605Z,61.82
2022-10-23T05:02:18.603Z,61.75
2022-10-23T05:04:45.438Z,61.83
2022-10-23T05:07:12.411Z,62.09
2022-10-23T05:09:39.324Z,62.11
2022-10-23T05:12:06.447Z,61.90
2022-10-23T05:14:33.363Z,62.21
2022-10-23T05:17:09.199Z,62.15
2022-10-23T05:19:44.342Z,61.90
2022-10-23T05:22:13.111Z,61.87
2022-10-23T05:24:40.525Z,61.93
2022-10-23T05:27:07.452Z,62.15
2022-10-23T05:29:34.323Z,61.86
2022-10-23T05:32:05.350Z,62.21
2022-10-23T05:34:34.803Z,62.25
2022-10-23T05:37:07.753Z,61.95
2022-10-23T05:39:35.227Z,62.11
2022-10-23T05:42:02.459Z,61.99
2022-10-23T05:44:29.374Z,61.89
2022-10-23T05:46:56.262Z,62.17
2022-10-23T05:49:26.264Z,62.26
2022-10-23T05:51:53.391Z,61.90
2022-10-23T05:54:20.247Z,62.17
2022-10-23T05:56:47.202Z,61.86
2022-10-23T05:59:14.722Z,62.27
2022-10-23T06:01:43.841Z,61.90
2022-10-23T06:04:10.775Z,61.85
2022-10-23T06:06:37.743Z,62.09
2022-10-23T06:09:04.981Z,61.91
2022-10-23T06:11:35.015Z,62.02
2022-10-23T06:14:01.863Z,61.75
2022-10-23T06:16:28.921Z,61.77
2022-10-23T06:18:57.459Z,61.89
2022-10-23T06:21:24.695Z,62.06
2022-10-23T06:23:51.799Z,62.13
2022-10-23T06:26:19.773Z,61.88
2022-10-23T06:28:46.794Z,61.96
2022-10-23T06:31:15.998Z,61.94
2022-10-23T06:33:42.908Z,61.88
2022-10-23T06:36:10.725Z,61.94
2022-10-23T06:38:40.634Z,62.27
2022-10-23T06:41:13.042Z,62.01
2022-10-23T06:43:40.081Z,62.21
2022-10-23T06:46:07.738Z,62.33
2022-10-23T06:48:34.669Z,62.02
2022-10-23T06:51:06.735Z,62.14
2022-10-23T06:53:35.956Z,61.78
2022-10-23T06:56:04.591Z,61.80
2022-10-23T06:58:32.130Z,62.50
2022-10-23T07:01:05.090Z,61.90
2022-10-23T07:03:32.562Z,62.29
2022-10-23T07:06:04.371Z,61.98
2022-10-23T07:08:31.806Z,61.91
2022-10-23T07:11:07.329Z,62.32
2022-10-23T07:13:36.026Z,61.90
2022-10-23T07:16:18.290Z,61.95
2022-10-23T07:18:48.338Z,62.00
2022-10-23T07:21:15.404Z,62.16
2022-10-23T07:23:42.325Z,62.27
2022-10-23T07:26:12.111Z,61.95
2022-10-23T07:28:39.078Z,61.92
2022-10-23T07:31:06.002Z,61.94
2022-10-23T07:33:33.052Z,62.37
2022-10-23T07:36:00.093Z,61.95
2022-10-23T07:38:28.155Z,61.94
2022-10-23T07:40:57.881Z,62.27
2022-10-23T07:43:26.103Z,61.92
2022-10-23T07:45:54.057Z,61.97
2022-10-23T07:48:21.785Z,62.14
2022-10-23T07:50:48.694Z,62.06
2022-10-23T07:53:21.514Z,62.09
2022-10-23T07:56:37.883Z,62.31
2022-10-23T07:59:05.053Z,62.33
2022-10-23T08:01:35.061Z,62.03
2022-10-23T08:04:02.178Z,61.82
2022-10-23T08:06:30.067Z,62.28
2022-10-23T08:08:59.884Z,62.13
2022-10-23T08:11:35.188Z,62.29
2022-10-23T08:14:04.684Z,61.92
2022-10-23T08:16:37.562Z,62.01
2022-10-23T08:19:06.838Z,62.09
2022-10-23T08:21:33.853Z,62.20
2022-10-23T08:24:01.497Z,61.93
2022-10-23T08:26:31.592Z,62.03
2022-10-23T08:28:59.801Z,61.12
2022-10-23T08:31:27.029Z,62.04
2022-10-23T08:33:53.918Z,61.84
2022-10-23T08:36:25.603Z,62.13
2022-10-23T08:38:54.779Z,61.61
2022-10-23T08:41:30.993Z,61.97
2022-10-23T08:44:13.433Z,61.91
2022-10-23T08:46:45.799Z,62.04
2022-10-23T08:49:30.854Z,61.68
2022-10-23T08:52:02.593Z,61.48
2022-10-23T08:55:01.604Z,61.65
2022-10-23T08:57:38.780Z,61.74
2022-10-23T09:00:14.509Z,61.66
2022-10-23T09:02:50.266Z,61.90
2022-10-23T09:05:47.035Z,61.94
2022-10-23T09:08:43.261Z,61.43
2022-10-23T09:11:30.797Z,61.51
2022-10-23T09:14:24.421Z,61.84
2022-10-23T09:17:20.141Z,61.37
2022-10-23T09:19:47.046Z,61.74
2022-10-23T09:22:14.191Z,61.91
2022-10-23T09:24:43.432Z,61.73
2022-10-23T09:27:16.985Z,61.87
2022-10-23T09:29:49.799Z,61.96
2022-10-23T09:32:16.782Z,61.58
2022-10-23T09:34:53.297Z,61.50
2022-10-23T09:37:24.617Z,61.98
2022-10-23T09:40:02.838Z,61.73
2022-10-23T09:42:30.105Z,61.83
2022-10-23T09:44:57.586Z,61.37
2022-10-23T09:47:26.121Z,61.42
2022-10-23T09:49:55.521Z,61.77
2022-10-23T09:52:48.575Z,61.91
2022-10-23T09:55:26.143Z,62.04
2022-10-23T09:58:00.559Z,61.91
2022-10-23T10:00:28.078Z,61.71
2022-10-23T10:03:06.596Z,61.62
2022-10-23T10:05:38.873Z,61.26
2022-10-23T10:08:28.962Z,61.40
2022-10-23T10:11:12.613Z,61.38
2022-10-23T10:13:48.639Z,61.62
2022-10-23T10:16:33.710Z,61.18
2022-10-23T10:19:13.683Z,61.38
2022-10-23T10:21:58.933Z,61.13
2022-10-23T10:24:54.235Z,61.37
2022-10-23T10:27:49.801Z,61.55
2022-10-23T10:30:22.610Z,61.81
2022-10-23T10:33:05.372Z,61.08
2022-10-23T10:35:55.029Z,61.51
2022-10-23T10:38:37.233Z,61.34
2022-10-23T10:41:29.972Z,61.19
2022-10-23T10:44:14.975Z,61.40
2022-10-23T10:46:44.671Z,61.19
2022-10-23T10:49:35.598Z,61.43
2022-10-23T10:52:14.575Z,61.19
2022-10-23T10:54:53.603Z,61.27
2022-10-23T10:57:38.381Z,61.28
2022-10-23T11:00:14.783Z,61.24
2022-10-23T11:02:51.926Z,61.06
2022-10-23T11:05:55.703Z,61.11
2022-10-23T11:08:50.005Z,61.25
2022-10-23T11:11:32.135Z,61.39
2022-10-23T11:13:59.380Z,61.56
2022-10-23T11:16:29.066Z,61.48
2022-10-23T11:19:26.759Z,61.42
2022-10-23T11:22:07.142Z,61.01
2022-10-23T11:25:04.680Z,60.81
2022-10-23T11:27:58.149Z,61.53
2022-10-23T11:30:54.958Z,61.05
2022-10-23T11:33:44.870Z,60.90
2022-10-23T11:36:17.438Z,61.19
2022-10-23T11:38:47.533Z,61.34
2022-10-23T11:41:28.519Z,61.05
2022-10-23T11:44:01.568Z,60.90
2022-10-23T11:46:38.259Z,61.11
2022-10-23T11:49:19.772Z,61.24
2022-10-23T11:51:46.725Z,61.46
2022-10-23T11:54:13.629Z,60.90
2022-10-23T11:57:10.590Z,60.79
2022-10-23T11:59:49.815Z,60.80
2022-10-23T12:02:32.153Z,60.84
2022-10-23T12:05:07.325Z,60.98
2022-10-23T12:07:40.063Z,61.24
2022-10-23T12:10:19.680Z,61.16
2022-10-23T12:13:06.644Z,60.76
2022-10-23T12:15:36.819Z,60.77
2022-10-23T12:18:18.093Z,61.08
2022-10-23T12:20:48.467Z,60.96
2022-10-23T12:23:21.384Z,61.02
2022-10-23T12:26:12.909Z,61.12
2022-10-23T12:29:28.080Z,61.07
2022-10-23T12:31:54.969Z,60.94
2022-10-23T12:35:12.803Z,61.01
2022-10-23T12:38:11.534Z,61.07
2022-10-23T12:40:39.502Z,60.46
2022-10-23T12:43:26.280Z,60.67
2022-10-23T12:46:16.952Z,60.96
2022-10-23T12:48:54.127Z,60.68
2022-10-23T12:51:24.762Z,60.51
2022-10-23T12:53:51.868Z,61.02
2022-10-23T12:56:19.444Z,60.68
2022-10-23T12:58:51.296Z,60.87
2022-10-23T13:01:33.560Z,60.91
2022-10-23T13:04:35.182Z,60.53
2022-10-23T13:07:04.224Z,60.33
2022-10-23T13:09:40.234Z,60.52
2022-10-23T13:12:08.982Z,60.62
2022-10-23T13:14:43.699Z,60.39
2022-10-23T13:17:12.220Z,60.66
2022-10-23T13:19:39.188Z,60.31
2022-10-23T13:22:19.703Z,60.16
2022-10-23T13:24:47.105Z,60.92
2022-10-23T13:27:33.167Z,60.60
2022-10-23T13:30:00.572Z,60.10
2022-10-23T13:32:30.385Z,60.23
2022-10-23T13:35:17.002Z,60.61
2022-10-23T13:37:51.244Z,60.35
2022-10-23T13:40:27.827Z,60.77
2022-10-23T13:42:55.998Z,60.77
2022-10-23T13:45:26.225Z,60.15
2022-10-23T13:47:53.461Z,60.45
2022-10-23T13:50:20.583Z,60.49
2022-10-23T13:52:47.594Z,60.47
2022-10-23T13:55:22.426Z,60.67
2022-10-23T13:57:49.483Z,60.25
2022-10-23T14:00:17.013Z,60.32
2022-10-23T14:02:44.773Z,60.62
2022-10-23T14:05:12.429Z,60.40
2022-10-23T14:07:39.361Z,60.79
2022-10-23T14:10:06.885Z,60.26
2022-10-23T14:12:44.520Z,60.33
2022-10-23T14:15:12.295Z,60.62
2022-10-23T14:17:39.228Z,60.48
2022-10-23T14:20:06.705Z,60.47
2022-10-23T14:22:33.735Z,60.66
2022-10-23T14:25:04.089Z,60.49
2022-10-23T14:27:31.337Z,60.73
2022-10-23T14:29:59.395Z,60.55
2022-10-23T14:32:26.281Z,60.59
2022-10-23T14:34:55.517Z,59.95
2022-10-23T14:37:22.404Z,60.34
2022-10-23T14:39:50.354Z,60.23
2022-10-23T14:42:17.670Z,60.23
2022-10-23T14:44:45.023Z,60.21
2022-10-23T14:47:12.099Z,59.97
2022-10-23T14:49:40.358Z,60.54
2022-10-23T14:52:08.332Z,60.42
2022-10-23T14:54:36.474Z,60.44
2022-10-23T14:57:04.331Z,60.26
2022-10-23T14:59:31.393Z,60.50
2022-10-23T15:01:58.403Z,59.94
2022-10-23T15:04:25.363Z,60.43
2022-10-23T15:06:53.179Z,60.37
2022-10-23T15:09:21.654Z,60.33
2022-10-23T15:11:49.739Z,60.24
2022-10-23T15:14:17.935Z,60.14
2022-10-23T15:16:45.811Z,60.49
2022-10-23T15:19:18.425Z,60.39
2022-10-23T15:21:47.398Z,60.32
2022-10-23T15:24:15.918Z,59.80
2022-10-23T15:26:46.021Z,60.11
2022-10-23T15:29:14.958Z,60.42
2022-10-23T15:31:45.368Z,60.45
2022-10-23T15:34:18.960Z,59.87
2022-10-23T15:36:47.104Z,59.88
2022-10-23T15:39:17.055Z,59.82
2022-10-23T15:41:44.664Z,60.10
2022-10-23T15:44:14.663Z,59.52
2022-10-23T15:46:41.743Z,59.89
2022-10-23T15:49:08.761Z,60.08
2022-10-23T15:51:36.999Z,59.88
2022-10-23T15:54:06.052Z,59.88
2022-10-23T15:56:34.216Z,60.43
2022-10-23T15:59:01.413Z,60.23
2022-10-23T16:01:28.627Z,59.84
2022-10-23T16:03:55.722Z,60.55
2022-10-23T16:06:22.938Z,60.29
2022-10-23T16:08:50.090Z,60.24
2022-10-23T16:11:23.855Z,60.15
2022-10-23T16:13:51.189Z,60.16
2022-10-23T16:16:18.578Z,60.14
2022-10-23T16:18:45.738Z,60.38
2022-10-23T16:21:27.409Z,60.26
2022-10-23T16:23:56.687Z,59.88
2022-10-23T16:26:23.942Z,60.25
2022-10-23T16:28:57.744Z,59.90
2022-10-23T16:31:26.394Z,60.52
2022-10-23T16:33:54.058Z,60.37
2022-10-23T16:36:21.268Z,60.26
2022-10-23T16:38:48.162Z,60.05
2022-10-23T16:41:15.118Z,59.92
2022-10-23T16:43:42.022Z,60.48
2022-10-23T16:46:18.229Z,60.09
2022-10-23T16:48:45.274Z,60.06
2022-10-23T16:51:18.833Z,60.01
2022-10-23T16:53:46.922Z,59.74
2022-10-23T16:56:15.809Z,60.57
2022-10-23T16:58:44.208Z,60.09
2022-10-23T17:01:16.132Z,60.10
2022-10-23T17:03:48.139Z,60.20
2022-10-23T17:06:18.190Z,60.28
2022-10-23T17:08:45.779Z,60.75
2022-10-23T17:11:37.163Z,60.47
2022-10-23T17:14:11.339Z,60.44
2022-10-23T17:16:41.094Z,60.48
2022-10-23T17:19:20.906Z,60.95
2022-10-23T17:21:55.879Z,60.79
2022-10-23T17:24:23.497Z,60.60
2022-10-23T17:26:50.733Z,60.81
2022-10-23T17:29:18.381Z,60.43
2022-10-23T17:31:48.301Z,60.64
2022-10-23T17:34:21.532Z,60.56
2022-10-23T17:36:51.452Z,60.58
2022-10-23T17:39:21.898Z,60.22
2022-10-23T17:41:48.832Z,60.59
2022-10-23T17:44:16.234Z,60.67
2022-10-23T17:46:43.590Z,60.71
2022-10-23T17:49:11.461Z,60.13
2022-10-23T17:51:41.705Z,60.39
2022-10-23T17:54:11.897Z,60.32
2022-10-23T17:56:40.701Z,60.32
2022-10-23T17:59:11.822Z,60.71
2022-10-23T18:01:39.749Z,60.39
2022-10-23T18:04:07.927Z,60.60
2022-10-23T18:06:43.647Z,60.43
2022-10-23T18:09:10.983Z,60.71
2022-10-23T18:11:43.925Z,60.32
2022-10-23T18:14:14.519Z,60.84
2022-10-23T18:16:41.840Z,60.89
2022-10-23T18:19:08.802Z,60.75
2022-10-23T18:21:36.434Z,60.44
2022-10-23T18:24:03.708Z,60.45
2022-10-23T18:26:35.012Z,60.53
2022-10-23T18:29:07.089Z,60.64
2022-10-23T18:31:35.481Z,60.57
2022-10-23T18:34:07.573Z,61.01
2022-10-23T18:36:39.679Z,60.87
2022-10-23T18:39:08.873Z,60.86
2022-10-23T18:41:39.179Z,60.65
2022-10-23T18:44:06.798Z,60.23
2022-10-23T18:46:34.391Z,60.75
2022-10-23T18:49:01.753Z,60.94
2022-10-23T18:51:31.259Z,60.60
2022-10-23T18:54:01.720Z,60.62
2022-10-23T18:56:28.964Z,60.44
2022-10-23T18:59:01.846Z,60.95
2022-10-23T19:01:30.190Z,60.97
2022-10-23T19:03:58.735Z,60.78
2022-10-23T19:06:26.095Z,60.67
2022-10-23T19:08:53.339Z,60.72
2022-10-23T19:11:22.274Z,60.39
2022-10-23T19:13:49.237Z,60.96
2022-10-23T19:16:35.377Z,60.99
2022-10-23T19:19:21.631Z,60.81
2022-10-23T19:21:49.707Z,60.60
2022-10-23T19:24:22.562Z,60.91
2022-10-23T19:26:50.043Z,60.54
2022-10-23T19:29:20.551Z,60.87
2022-10-23T19:31:51.730Z,60.97
2022-10-23T19:34:20.681Z,61.06
2022-10-23T19:36:48.401Z,60.73
2022-10-23T19:39:16.294Z,60.90
2022-10-23T19:41:43.721Z,61.09
2022-10-23T19:44:10.844Z,60.94
2022-10-23T19:46:38.118Z,60.56
2022-10-23T19:49:05.930Z,60.34
2022-10-23T19:51:32.965Z,61.06
2022-10-23T19:54:00.335Z,60.64
2022-10-23T19:56:27.620Z,61.16
2022-10-23T19:58:54.678Z,60.71
2022-10-23T20:01:24.385Z,61.04
2022-10-23T20:03:52.205Z,61.04
2022-10-23T20:06:23.112Z,60.58
2022-10-23T20:08:50.653Z,61.10
2022-10-23T20:11:26.936Z,60.73
2022-10-23T20:13:54.462Z,60.97
2022-10-23T20:16:33.458Z,61.06
2022-10-23T20:19:03.023Z,61.08
2022-10-23T20:21:30.474Z,60.86
2022-10-23T20:23:58.454Z,60.67
2022-10-23T20:26:25.380Z,60.90
2022-10-23T20:28:55.223Z,61.09
2022-10-23T20:31:25.293Z,60.84
2022-10-23T20:33:52.892Z,61.15
2022-10-23T20:36:29.100Z,60.68
2022-10-23T20:38:56.761Z,60.61
2022-10-23T20:41:33.777Z,60.56
2022-10-23T20:44:00.744Z,60.61
2022-10-23T20:46:29.670Z,60.92
2022-10-23T20:48:56.530Z,60.83
2022-10-23T20:51:24.648Z,60.47
2022-10-23T20:53:53.243Z,61.01
2022-10-23T20:56:31.023Z,60.82
2022-10-23T20:59:11.557Z,60.62
2022-10-23T21:01:43.448Z,60.93
2022-10-23T21:04:13.208Z,61.08
2022-10-23T21:06:57.533Z,60.09
2022-10-23T21:09:29.437Z,60.94
2022-10-23T21:11:56.368Z,61.11
2022-10-23T21:14:23.155Z,60.91
2022-10-23T21:16:50.063Z,60.60
2022-10-23T21:19:16.929Z,60.58
2022-10-23T21:21:44.498Z,61.27
2022-10-23T21:24:14.919Z,60.51
2022-10-23T21:26:42.266Z,60.68
2022-10-23T21:29:24.513Z,60.98
2022-10-23T21:32:11.328Z,61.19
2022-10-23T21:34:41.764Z,61.03
2022-10-23T21:37:13.939Z,60.67
2022-10-23T21:39:49.036Z,60.99
2022-10-23T21:42:16.102Z,60.97
2022-10-23T21:45:03.224Z,60.90
2022-10-23T21:47:30.888Z,60.85
2022-10-23T21:50:03.499Z,60.99
2022-10-23T21:52:30.453Z,61.03
2022-10-23T21:55:02.851Z,60.55
2022-10-23T21:57:36.898Z,61.08
2022-10-23T22:00:12.650Z,60.77
2022-10-23T22:02:50.506Z,60.63
2022-10-23T22:05:17.468Z,61.03
2022-10-23T22:07:47.137Z,60.99
2022-10-23T22:10:14.464Z,60.69
2022-10-23T22:12:41.720Z,61.11
2022-10-23T22:15:09.019Z,60.81
2022-10-23T22:17:35.918Z,60.72
2022-10-23T22:20:02.800Z,60.84
2022-10-23T22:22:29.556Z,61.22
2022-10-23T22:24:56.480Z,60.62
2022-10-23T22:27:23.262Z,60.71
2022-10-23T22:29:50.147Z,61.15
2022-10-23T22:32:17.029Z,60.74
2022-10-23T22:34:59.225Z,60.97
2022-10-23T22:37:26.414Z,60.73
2022-10-23T22:39:53.318Z,61.33
2022-10-23T22:42:20.661Z,60.77
2022-10-23T22:44:47.491Z,61.31
2022-10-23T22:47:14.265Z,61.16
2022-10-23T22:49:41.129Z,61.11
2022-10-23T22:52:07.892Z,61.14
2022-10-23T22:54:34.830Z,61.22
2022-10-23T22:57:01.802Z,61.07
2022-10-23T22:59:28.661Z,61.06
2022-10-23T23:01:55.681Z,61.01
2022-10-23T23:04:38.995Z,60.88
2022-10-23T23:07:08.666Z,60.72
2022-10-23T23:09:37.852Z,61.09
2022-10-23T23:12:05.765Z,60.84
2022-10-23T23:14:32.619Z,61.31
2022-10-23T23:16:59.443Z,60.85
2022-10-23T23:19:26.694Z,61.31
2022-10-23T23:21:58.275Z,61.01
2022-10-23T23:24:25.899Z,60.84
2022-10-23T23:26:53.265Z,61.15
2022-10-23T23:29:21.469Z,61.34
2022-10-23T23:31:53.957Z,61.00
2022-10-23T23:34:24.279Z,60.93
2022-10-23T23:36:51.284Z,61.27
2022-10-23T23:39:24.775Z,61.09
2022-10-23T23:41:54.242Z,61.04
2022-10-23T23:44:24.089Z,61.16
2022-10-23T23:46:55.527Z,61.03
2022-10-23T23:49:46.623Z,61.31
2022-10-23T23:52:14.870Z,61.25
2022-10-23T23:54:45.961Z,61.48
2022-10-23T23:57:20.006Z,61.00
2022-10-23T23:59:53.272Z,61.53
